sensor_id;sensor_type;location;lat;lon;timestamp;P1;durP1;ratioP1;P2;durP2;ratioP2
19621;SDS011;9958;33.196;-97.114;2023-12-20T00:00:53;2.08;;;1.40;;
19621;SDS011;9958;33.196;-97.114;2023-12-20T00:03:21;3.33;;;1.70;;
19621;SDS011;9958;33.196;-97.114;2023-12-20T00:05:50;2.88;;;1.80;;
19621;SDS011;9958;33.196;-97.114;2023-12-20T00:08:18;2.30;;;1.83;;
19621;SDS011;9958;33.196;-97.114;2023-12-20T00:10:46;3.70;;;1.52;;
19621;SDS011;9958;33.196;-97.114;2023-12-20T00:13:15;2.20;;;1.40;;
19621;SDS011;9958;33.196;-97.114;2023-12-20T00:15:45;2.50;;;1.55;;
19621;SDS011;9958;33.196;-97.114;2023-12-20T00:18:13;4.10;;;1.73;;
19621;SDS011;9958;33.196;-97.114;2023-12-20T00:20:41;2.33;;;1.85;;
19621;SDS011;9958;33.196;-97.114;2023-12-20T00:23:10;2.05;;;1.58;;
19621;SDS011;9958;33.196;-97.114;2023-12-20T00:25:38;3.45;;;1.88;;
19621;SDS011;9958;33.196;-97.114;2023-12-20T00:28:06;1.92;;;1.63;;
19621;SDS011;9958;33.196;-97.114;2023-12-20T00:30:34;2.15;;;1.55;;
19621;SDS011;9958;33.196;-97.114;2023-12-20T00:33:04;3.17;;;1.67;;
19621;SDS011;9958;33.196;-97.114;2023-12-20T00:35:33;2.13;;;1.60;;
19621;SDS011;9958;33.196;-97.114;2023-12-20T00:38:01;1.58;;;1.40;;
19621;SDS011;9958;33.196;-97.114;2023-12-20T00:40:30;2.20;;;1.30;;
19621;SDS011;9958;33.196;-97.114;2023-12-20T00:42:58;2.25;;;1.50;;
19621;SDS011;9958;33.196;-97.114;2023-12-20T00:45:27;2.05;;;1.30;;
19621;SDS011;9958;33.196;-97.114;2023-12-20T00:47:55;1.65;;;1.52;;
19621;SDS011;9958;33.196;-97.114;2023-12-20T00:50:26;1.88;;;1.30;;
19621;SDS011;9958;33.196;-97.114;2023-12-20T00:52:54;3.75;;;1.60;;
19621;SDS011;9958;33.196;-97.114;2023-12-20T00:55:22;3.50;;;1.55;;
19621;SDS011;9958;33.196;-97.114;2023-12-20T00:57:51;4.05;;;1.88;;
19621;SDS011;9958;33.196;-97.114;2023-12-20T01:00:19;3.25;;;1.58;;
19621;SDS011;9958;33.196;-97.114;2023-12-20T01:02:48;4.05;;;2.30;;
19621;SDS011;9958;33.196;-97.114;2023-12-20T01:05:17;2.28;;;1.77;;
19621;SDS011;9958;33.196;-97.114;2023-12-20T01:07:50;1.90;;;1.67;;
19621;SDS011;9958;33.196;-97.114;2023-12-20T01:10:18;2.20;;;1.83;;
19621;SDS011;9958;33.196;-97.114;2023-12-20T01:12:47;2.78;;;1.88;;
19621;SDS011;9958;33.196;-97.114;2023-12-20T01:15:15;2.17;;;1.80;;
19621;SDS011;9958;33.196;-97.114;2023-12-20T01:17:44;2.30;;;1.67;;
19621;SDS011;9958;33.196;-97.114;2023-12-20T01:20:13;3.25;;;2.00;;
19621;SDS011;9958;33.196;-97.114;2023-12-20T01:22:42;2.92;;;1.70;;
19621;SDS011;9958;33.196;-97.114;2023-12-20T01:25:13;2.95;;;1.83;;
19621;SDS011;9958;33.196;-97.114;2023-12-20T01:27:41;2.22;;;1.65;;
19621;SDS011;9958;33.196;-97.114;2023-12-20T01:30:10;1.67;;;1.50;;
19621;SDS011;9958;33.196;-97.114;2023-12-20T01:32:38;2.65;;;1.92;;
19621;SDS011;9958;33.196;-97.114;2023-12-20T01:35:07;4.53;;;1.67;;
19621;SDS011;9958;33.196;-97.114;2023-12-20T01:37:35;6.30;;;2.78;;
19621;SDS011;9958;33.196;-97.114;2023-12-20T01:40:03;4.05;;;2.40;;
19621;SDS011;9958;33.196;-97.114;2023-12-20T01:42:33;3.70;;;2.10;;
19621;SDS011;9958;33.196;-97.114;2023-12-20T01:45:01;2.67;;;2.45;;
19621;SDS011;9958;33.196;-97.114;2023-12-20T01:47:30;5.30;;;2.20;;
19621;SDS011;9958;33.196;-97.114;2023-12-20T01:49:58;3.17;;;1.92;;
19621;SDS011;9958;33.196;-97.114;2023-12-20T01:52:29;5.65;;;2.38;;
19621;SDS011;9958;33.196;-97.114;2023-12-20T01:54:59;3.75;;;2.30;;
19621;SDS011;9958;33.196;-97.114;2023-12-20T01:57:29;2.80;;;2.15;;
19621;SDS011;9958;33.196;-97.114;2023-12-20T02:00:00;3.03;;;2.42;;
19621;SDS011;9958;33.196;-97.114;2023-12-20T02:02:29;4.00;;;2.60;;
19621;SDS011;9958;33.196;-97.114;2023-12-20T02:04:57;3.95;;;1.92;;
19621;SDS011;9958;33.196;-97.114;2023-12-20T02:07:27;2.10;;;1.90;;
19621;SDS011;9958;33.196;-97.114;2023-12-20T02:09:58;2.50;;;2.05;;
19621;SDS011;9958;33.196;-97.114;2023-12-20T02:12:26;4.40;;;2.53;;
19621;SDS011;9958;33.196;-97.114;2023-12-20T02:14:55;3.38;;;2.50;;
19621;SDS011;9958;33.196;-97.114;2023-12-20T02:17:25;5.45;;;2.38;;
19621;SDS011;9958;33.196;-97.114;2023-12-20T02:19:54;2.80;;;2.00;;
19621;SDS011;9958;33.196;-97.114;2023-12-20T02:22:24;6.55;;;2.28;;
19621;SDS011;9958;33.196;-97.114;2023-12-20T02:24:52;3.75;;;2.03;;
19621;SDS011;9958;33.196;-97.114;2023-12-20T02:27:21;5.30;;;2.17;;
19621;SDS011;9958;33.196;-97.114;2023-12-20T02:29:50;3.05;;;2.03;;
19621;SDS011;9958;33.196;-97.114;2023-12-20T02:32:18;4.35;;;1.90;;
19621;SDS011;9958;33.196;-97.114;2023-12-20T02:34:48;3.58;;;2.15;;
19621;SDS011;9958;33.196;-97.114;2023-12-20T02:37:16;3.47;;;2.30;;
19621;SDS011;9958;33.196;-97.114;2023-12-20T02:39:46;3.10;;;2.15;;
19621;SDS011;9958;33.196;-97.114;2023-12-20T02:42:15;3.75;;;1.90;;
19621;SDS011;9958;33.196;-97.114;2023-12-20T02:44:43;10.52;;;2.35;;
19621;SDS011;9958;33.196;-97.114;2023-12-20T02:47:11;2.78;;;2.05;;
19621;SDS011;9958;33.196;-97.114;2023-12-20T02:49:40;1.73;;;1.63;;
19621;SDS011;9958;33.196;-97.114;2023-12-20T02:52:08;2.28;;;1.80;;
19621;SDS011;9958;33.196;-97.114;2023-12-20T02:54:36;3.33;;;1.92;;
19621;SDS011;9958;33.196;-97.114;2023-12-20T02:57:06;2.80;;;1.70;;
19621;SDS011;9958;33.196;-97.114;2023-12-20T02:59:34;1.92;;;1.50;;
19621;SDS011;9958;33.196;-97.114;2023-12-20T03:02:03;1.75;;;1.40;;
19621;SDS011;9958;33.196;-97.114;2023-12-20T03:04:31;1.92;;;1.58;;
19621;SDS011;9958;33.196;-97.114;2023-12-20T03:06:59;1.55;;;1.30;;
19621;SDS011;9958;33.196;-97.114;2023-12-20T03:09:28;2.25;;;1.52;;
19621;SDS011;9958;33.196;-97.114;2023-12-20T03:11:56;1.75;;;1.60;;
19621;SDS011;9958;33.196;-97.114;2023-12-20T03:14:26;3.05;;;1.42;;
19621;SDS011;9958;33.196;-97.114;2023-12-20T03:16:54;1.42;;;1.25;;
19621;SDS011;9958;33.196;-97.114;2023-12-20T03:19:23;2.50;;;1.60;;
19621;SDS011;9958;33.196;-97.114;2023-12-20T03:21:51;2.10;;;1.90;;
19621;SDS011;9958;33.196;-97.114;2023-12-20T03:24:20;1.70;;;1.60;;
19621;SDS011;9958;33.196;-97.114;2023-12-20T03:26:48;3.88;;;1.33;;
19621;SDS011;9958;33.196;-97.114;2023-12-20T03:29:16;3.00;;;1.40;;
19621;SDS011;9958;33.196;-97.114;2023-12-20T03:31:46;1.45;;;1.35;;
19621;SDS011;9958;33.196;-97.114;2023-12-20T03:34:14;2.25;;;1.42;;
19621;SDS011;9958;33.196;-97.114;2023-12-20T03:36:43;1.63;;;1.42;;
19621;SDS011;9958;33.196;-97.114;2023-12-20T03:39:13;1.15;;;1.02;;
19621;SDS011;9958;33.196;-97.114;2023-12-20T03:41:41;1.50;;;1.40;;
19621;SDS011;9958;33.196;-97.114;2023-12-20T03:44:10;1.48;;;1.35;;
19621;SDS011;9958;33.196;-97.114;2023-12-20T03:46:38;1.50;;;1.40;;
19621;SDS011;9958;33.196;-97.114;2023-12-20T03:49:08;1.85;;;1.42;;
19621;SDS011;9958;33.196;-97.114;2023-12-20T03:51:36;2.60;;;1.40;;
19621;SDS011;9958;33.196;-97.114;2023-12-20T03:54:05;1.42;;;1.30;;
19621;SDS011;9958;33.196;-97.114;2023-12-20T03:56:33;1.52;;;1.42;;
19621;SDS011;9958;33.196;-97.114;2023-12-20T03:59:01;2.22;;;1.98;;
19621;SDS011;9958;33.196;-97.114;2023-12-20T04:01:30;1.88;;;1.77;;
19621;SDS011;9958;33.196;-97.114;2023-12-20T04:03:58;2.30;;;1.45;;
19621;SDS011;9958;33.196;-97.114;2023-12-20T04:06:28;3.28;;;1.45;;
19621;SDS011;9958;33.196;-97.114;2023-12-20T04:08:56;1.40;;;1.30;;
19621;SDS011;9958;33.196;-97.114;2023-12-20T04:11:24;1.48;;;1.38;;
19621;SDS011;9958;33.196;-97.114;2023-12-20T04:13:53;1.73;;;1.30;;
19621;SDS011;9958;33.196;-97.114;2023-12-20T04:16:21;1.52;;;1.42;;
19621;SDS011;9958;33.196;-97.114;2023-12-20T04:18:49;3.08;;;1.35;;
19621;SDS011;9958;33.196;-97.114;2023-12-20T04:21:18;1.88;;;1.27;;
19621;SDS011;9958;33.196;-97.114;2023-12-20T04:23:47;2.22;;;1.27;;
19621;SDS011;9958;33.196;-97.114;2023-12-20T04:26:16;3.03;;;1.75;;
19621;SDS011;9958;33.196;-97.114;2023-12-20T04:28:44;2.60;;;1.92;;
19621;SDS011;9958;33.196;-97.114;2023-12-20T04:31:12;1.73;;;1.50;;
19621;SDS011;9958;33.196;-97.114;2023-12-20T04:33:41;1.85;;;1.50;;
19621;SDS011;9958;33.196;-97.114;2023-12-20T04:36:09;1.95;;;1.63;;
19621;SDS011;9958;33.196;-97.114;2023-12-20T04:38:37;3.25;;;1.30;;
19621;SDS011;9958;33.196;-97.114;2023-12-20T04:41:07;1.58;;;1.35;;
19621;SDS011;9958;33.196;-97.114;2023-12-20T04:43:36;1.45;;;1.35;;
19621;SDS011;9958;33.196;-97.114;2023-12-20T04:46:04;3.28;;;1.90;;
19621;SDS011;9958;33.196;-97.114;2023-12-20T04:48:32;1.67;;;1.33;;
19621;SDS011;9958;33.196;-97.114;2023-12-20T04:51:01;1.73;;;1.40;;
19621;SDS011;9958;33.196;-97.114;2023-12-20T04:53:29;2.65;;;1.63;;
19621;SDS011;9958;33.196;-97.114;2023-12-20T04:55:57;2.03;;;1.65;;
19621;SDS011;9958;33.196;-97.114;2023-12-20T04:58:29;3.20;;;1.50;;
19621;SDS011;9958;33.196;-97.114;2023-12-20T05:00:58;3.17;;;1.48;;
19621;SDS011;9958;33.196;-97.114;2023-12-20T05:03:26;2.38;;;1.25;;
19621;SDS011;9958;33.196;-97.114;2023-12-20T05:05:55;2.75;;;1.70;;
19621;SDS011;9958;33.196;-97.114;2023-12-20T05:08:23;2.13;;;1.30;;
19621;SDS011;9958;33.196;-97.114;2023-12-20T05:10:52;2.33;;;1.55;;
19621;SDS011;9958;33.196;-97.114;2023-12-20T05:13:21;1.50;;;1.35;;
19621;SDS011;9958;33.196;-97.114;2023-12-20T05:15:51;1.70;;;1.60;;
19621;SDS011;9958;33.196;-97.114;2023-12-20T05:18:20;1.38;;;1.27;;
19621;SDS011;9958;33.196;-97.114;2023-12-20T05:20:48;2.80;;;1.65;;
19621;SDS011;9958;33.196;-97.114;2023-12-20T05:23:17;1.63;;;1.50;;
19621;SDS011;9958;33.196;-97.114;2023-12-20T05:25:45;4.22;;;1.67;;
19621;SDS011;9958;33.196;-97.114;2023-12-20T05:28:15;2.55;;;1.70;;
19621;SDS011;9958;33.196;-97.114;2023-12-20T05:30:43;2.50;;;1.83;;
19621;SDS011;9958;33.196;-97.114;2023-12-20T05:33:13;3.83;;;2.00;;
19621;SDS011;9958;33.196;-97.114;2023-12-20T05:35:41;4.97;;;1.90;;
19621;SDS011;9958;33.196;-97.114;2023-12-20T05:38:10;2.22;;;1.65;;
19621;SDS011;9958;33.196;-97.114;2023-12-20T05:40:38;3.63;;;1.67;;
19621;SDS011;9958;33.196;-97.114;2023-12-20T05:43:07;1.50;;;1.30;;
19621;SDS011;9958;33.196;-97.114;2023-12-20T05:45:35;2.20;;;1.60;;
19621;SDS011;9958;33.196;-97.114;2023-12-20T05:48:04;2.00;;;1.48;;
19621;SDS011;9958;33.196;-97.114;2023-12-20T05:50:34;2.67;;;1.45;;
19621;SDS011;9958;33.196;-97.114;2023-12-20T05:53:02;4.20;;;2.08;;
19621;SDS011;9958;33.196;-97.114;2023-12-20T05:55:31;1.75;;;1.55;;
19621;SDS011;9958;33.196;-97.114;2023-12-20T05:57:59;2.15;;;1.52;;
19621;SDS011;9958;33.196;-97.114;2023-12-20T06:00:28;1.45;;;1.35;;
19621;SDS011;9958;33.196;-97.114;2023-12-20T06:02:56;3.22;;;2.08;;
19621;SDS011;9958;33.196;-97.114;2023-12-20T06:05:25;3.42;;;1.90;;
19621;SDS011;9958;33.196;-97.114;2023-12-20T06:07:55;2.10;;;1.73;;
19621;SDS011;9958;33.196;-97.114;2023-12-20T06:10:26;1.83;;;1.70;;
19621;SDS011;9958;33.196;-97.114;2023-12-20T06:12:55;2.08;;;1.65;;
19621;SDS011;9958;33.196;-97.114;2023-12-20T06:15:24;2.38;;;1.52;;
19621;SDS011;9958;33.196;-97.114;2023-12-20T06:17:52;4.13;;;2.00;;
19621;SDS011;9958;33.196;-97.114;2023-12-20T06:20:21;2.13;;;1.88;;
19621;SDS011;9958;33.196;-97.114;2023-12-20T06:22:49;4.15;;;1.83;;
19621;SDS011;9958;33.196;-97.114;2023-12-20T06:25:19;4.00;;;1.65;;
19621;SDS011;9958;33.196;-97.114;2023-12-20T06:27:47;2.60;;;1.77;;
19621;SDS011;9958;33.196;-97.114;2023-12-20T06:30:15;2.35;;;1.85;;
19621;SDS011;9958;33.196;-97.114;2023-12-20T06:32:44;4.22;;;1.90;;
19621;SDS011;9958;33.196;-97.114;2023-12-20T06:35:13;3.00;;;1.75;;
19621;SDS011;9958;33.196;-97.114;2023-12-20T06:37:41;5.60;;;1.85;;
19621;SDS011;9958;33.196;-97.114;2023-12-20T06:40:10;1.60;;;1.50;;
19621;SDS011;9958;33.196;-97.114;2023-12-20T06:42:40;2.03;;;1.70;;
19621;SDS011;9958;33.196;-97.114;2023-12-20T06:45:09;2.80;;;1.88;;
19621;SDS011;9958;33.196;-97.114;2023-12-20T06:47:38;2.90;;;2.00;;
19621;SDS011;9958;33.196;-97.114;2023-12-20T06:50:06;3.25;;;1.80;;
19621;SDS011;9958;33.196;-97.114;2023-12-20T06:52:35;3.35;;;1.70;;
19621;SDS011;9958;33.196;-97.114;2023-12-20T06:55:03;1.98;;;1.52;;
19621;SDS011;9958;33.196;-97.114;2023-12-20T06:57:32;2.30;;;1.65;;
19621;SDS011;9958;33.196;-97.114;2023-12-20T07:00:03;2.05;;;1.60;;
19621;SDS011;9958;33.196;-97.114;2023-12-20T07:02:34;2.38;;;2.00;;
19621;SDS011;9958;33.196;-97.114;2023-12-20T07:05:02;3.25;;;2.00;;
19621;SDS011;9958;33.196;-97.114;2023-12-20T07:07:31;1.73;;;1.63;;
19621;SDS011;9958;33.196;-97.114;2023-12-20T07:10:00;4.32;;;1.90;;
19621;SDS011;9958;33.196;-97.114;2023-12-20T07:12:28;1.70;;;1.52;;
19621;SDS011;9958;33.196;-97.114;2023-12-20T07:14:57;2.78;;;1.80;;
19621;SDS011;9958;33.196;-97.114;2023-12-20T07:17:27;3.75;;;1.83;;
19621;SDS011;9958;33.196;-97.114;2023-12-20T07:19:55;4.15;;;2.00;;
19621;SDS011;9958;33.196;-97.114;2023-12-20T07:22:23;4.95;;;1.92;;
19621;SDS011;9958;33.196;-97.114;2023-12-20T07:24:51;2.20;;;1.98;;
19621;SDS011;9958;33.196;-97.114;2023-12-20T07:27:20;2.80;;;2.10;;
19621;SDS011;9958;33.196;-97.114;2023-12-20T07:29:48;2.17;;;1.75;;
19621;SDS011;9958;33.196;-97.114;2023-12-20T07:32:17;1.80;;;1.70;;
19621;SDS011;9958;33.196;-97.114;2023-12-20T07:34:46;2.65;;;1.70;;
19621;SDS011;9958;33.196;-97.114;2023-12-20T07:37:15;2.65;;;1.88;;
19621;SDS011;9958;33.196;-97.114;2023-12-20T07:39:43;4.35;;;2.00;;
19621;SDS011;9958;33.196;-97.114;2023-12-20T07:42:11;1.98;;;1.70;;
19621;SDS011;9958;33.196;-97.114;2023-12-20T07:44:40;3.10;;;2.17;;
19621;SDS011;9958;33.196;-97.114;2023-12-20T07:47:08;2.22;;;2.03;;
19621;SDS011;9958;33.196;-97.114;2023-12-20T07:49:37;4.10;;;2.25;;
19621;SDS011;9958;33.196;-97.114;2023-12-20T07:52:07;3.00;;;2.17;;
19621;SDS011;9958;33.196;-97.114;2023-12-20T07:54:35;2.00;;;1.48;;
19621;SDS011;9958;33.196;-97.114;2023-12-20T07:57:04;4.90;;;2.20;;
19621;SDS011;9958;33.196;-97.114;2023-12-20T07:59:32;2.22;;;1.75;;
19621;SDS011;9958;33.196;-97.114;2023-12-20T08:02:00;2.35;;;1.92;;
19621;SDS011;9958;33.196;-97.114;2023-12-20T08:04:29;2.70;;;2.00;;
19621;SDS011;9958;33.196;-97.114;2023-12-20T08:06:58;3.33;;;1.75;;
19621;SDS011;9958;33.196;-97.114;2023-12-20T08:09:28;3.60;;;2.03;;
19621;SDS011;9958;33.196;-97.114;2023-12-20T08:11:57;3.95;;;2.22;;
19621;SDS011;9958;33.196;-97.114;2023-12-20T08:14:25;3.70;;;1.85;;
19621;SDS011;9958;33.196;-97.114;2023-12-20T08:16:54;1.60;;;1.50;;
19621;SDS011;9958;33.196;-97.114;2023-12-20T08:19:22;2.58;;;2.17;;
19621;SDS011;9958;33.196;-97.114;2023-12-20T08:21:50;3.17;;;2.10;;
19621;SDS011;9958;33.196;-97.114;2023-12-20T08:24:18;3.50;;;1.92;;
19621;SDS011;9958;33.196;-97.114;2023-12-20T08:26:48;4.18;;;2.75;;
19621;SDS011;9958;33.196;-97.114;2023-12-20T08:29:17;3.50;;;2.22;;
19621;SDS011;9958;33.196;-97.114;2023-12-20T08:31:44;2.88;;;2.10;;
19621;SDS011;9958;33.196;-97.114;2023-12-20T08:34:12;3.20;;;2.42;;
19621;SDS011;9958;33.196;-97.114;2023-12-20T08:36:40;4.38;;;2.10;;
19621;SDS011;9958;33.196;-97.114;2023-12-20T08:39:09;2.67;;;2.15;;
19621;SDS011;9958;33.196;-97.114;2023-12-20T08:41:37;1.75;;;1.65;;
19621;SDS011;9958;33.196;-97.114;2023-12-20T08:44:07;2.65;;;2.13;;
19621;SDS011;9958;33.196;-97.114;2023-12-20T08:46:35;3.42;;;1.95;;
19621;SDS011;9958;33.196;-97.114;2023-12-20T08:49:04;3.47;;;2.03;;
19621;SDS011;9958;33.196;-97.114;2023-12-20T08:51:32;2.42;;;1.95;;
19621;SDS011;9958;33.196;-97.114;2023-12-20T08:54:01;2.55;;;2.35;;
19621;SDS011;9958;33.196;-97.114;2023-12-20T08:56:33;5.68;;;1.80;;
19621;SDS011;9958;33.196;-97.114;2023-12-20T08:59:01;2.28;;;2.08;;
19621;SDS011;9958;33.196;-97.114;2023-12-20T09:01:31;3.45;;;1.95;;
19621;SDS011;9958;33.196;-97.114;2023-12-20T09:04:00;3.50;;;1.92;;
19621;SDS011;9958;33.196;-97.114;2023-12-20T09:06:28;3.13;;;2.20;;
19621;SDS011;9958;33.196;-97.114;2023-12-20T09:08:56;6.88;;;2.08;;
19621;SDS011;9958;33.196;-97.114;2023-12-20T09:11:24;2.97;;;1.88;;
19621;SDS011;9958;33.196;-97.114;2023-12-20T09:13:53;2.28;;;2.03;;
19621;SDS011;9958;33.196;-97.114;2023-12-20T09:16:21;2.10;;;1.90;;
19621;SDS011;9958;33.196;-97.114;2023-12-20T09:18:51;2.55;;;1.75;;
19621;SDS011;9958;33.196;-97.114;2023-12-20T09:21:19;3.50;;;2.08;;
19621;SDS011;9958;33.196;-97.114;2023-12-20T09:23:47;3.20;;;2.33;;
19621;SDS011;9958;33.196;-97.114;2023-12-20T09:26:16;1.83;;;1.73;;
19621;SDS011;9958;33.196;-97.114;2023-12-20T09:28:44;2.70;;;2.28;;
19621;SDS011;9958;33.196;-97.114;2023-12-20T09:31:13;2.65;;;2.30;;
19621;SDS011;9958;33.196;-97.114;2023-12-20T09:33:41;2.75;;;2.00;;
19621;SDS011;9958;33.196;-97.114;2023-12-20T09:36:11;3.70;;;2.80;;
19621;SDS011;9958;33.196;-97.114;2023-12-20T09:38:39;2.33;;;2.00;;
19621;SDS011;9958;33.196;-97.114;2023-12-20T09:41:08;4.70;;;2.28;;
19621;SDS011;9958;33.196;-97.114;2023-12-20T09:43:37;2.30;;;2.10;;
19621;SDS011;9958;33.196;-97.114;2023-12-20T09:46:07;4.35;;;2.33;;
19621;SDS011;9958;33.196;-97.114;2023-12-20T09:48:39;2.75;;;2.03;;
19621;SDS011;9958;33.196;-97.114;2023-12-20T09:51:11;2.25;;;2.00;;
19621;SDS011;9958;33.196;-97.114;2023-12-20T09:53:40;3.55;;;2.00;;
19621;SDS011;9958;33.196;-97.114;2023-12-20T09:56:10;1.92;;;1.73;;
19621;SDS011;9958;33.196;-97.114;2023-12-20T09:58:39;3.30;;;2.80;;
19621;SDS011;9958;33.196;-97.114;2023-12-20T10:01:07;7.57;;;2.53;;
19621;SDS011;9958;33.196;-97.114;2023-12-20T10:03:36;2.20;;;1.80;;
19621;SDS011;9958;33.196;-97.114;2023-12-20T10:06:08;3.58;;;2.38;;
19621;SDS011;9958;33.196;-97.114;2023-12-20T10:08:38;3.33;;;1.83;;
19621;SDS011;9958;33.196;-97.114;2023-12-20T10:11:06;4.72;;;2.22;;
19621;SDS011;9958;33.196;-97.114;2023-12-20T10:13:36;3.67;;;2.15;;
19621;SDS011;9958;33.196;-97.114;2023-12-20T10:16:07;5.40;;;2.30;;
19621;SDS011;9958;33.196;-97.114;2023-12-20T10:18:36;5.25;;;2.28;;
19621;SDS011;9958;33.196;-97.114;2023-12-20T10:21:04;2.47;;;2.13;;
19621;SDS011;9958;33.196;-97.114;2023-12-20T10:23:34;3.15;;;2.20;;
19621;SDS011;9958;33.196;-97.114;2023-12-20T10:26:04;2.55;;;2.22;;
19621;SDS011;9958;33.196;-97.114;2023-12-20T10:28:33;6.00;;;2.35;;
19621;SDS011;9958;33.196;-97.114;2023-12-20T10:31:02;4.07;;;2.10;;
19621;SDS011;9958;33.196;-97.114;2023-12-20T10:33:31;2.63;;;1.92;;
19621;SDS011;9958;33.196;-97.114;2023-12-20T10:35:59;2.38;;;2.15;;
19621;SDS011;9958;33.196;-97.114;2023-12-20T10:38:28;2.50;;;1.80;;
19621;SDS011;9958;33.196;-97.114;2023-12-20T10:40:58;4.53;;;2.22;;
19621;SDS011;9958;33.196;-97.114;2023-12-20T10:43:28;4.82;;;2.35;;
19621;SDS011;9958;33.196;-97.114;2023-12-20T10:45:59;2.78;;;2.20;;
19621;SDS011;9958;33.196;-97.114;2023-12-20T10:48:30;6.15;;;2.47;;
19621;SDS011;9958;33.196;-97.114;2023-12-20T10:50:59;3.80;;;2.40;;
19621;SDS011;9958;33.196;-97.114;2023-12-20T10:53:28;3.15;;;2.03;;
19621;SDS011;9958;33.196;-97.114;2023-12-20T10:55:59;5.57;;;2.25;;
19621;SDS011;9958;33.196;-97.114;2023-12-20T10:58:30;3.85;;;2.63;;
19621;SDS011;9958;33.196;-97.114;2023-12-20T11:01:00;4.00;;;2.20;;
19621;SDS011;9958;33.196;-97.114;2023-12-20T11:03:31;4.20;;;2.20;;
19621;SDS011;9958;33.196;-97.114;2023-12-20T11:06:03;4.60;;;2.63;;
19621;SDS011;9958;33.196;-97.114;2023-12-20T11:08:38;2.92;;;2.30;;
19621;SDS011;9958;33.196;-97.114;2023-12-20T11:11:14;3.78;;;2.47;;
19621;SDS011;9958;33.196;-97.114;2023-12-20T11:13:53;2.22;;;2.00;;
19621;SDS011;9958;33.196;-97.114;2023-12-20T11:16:24;2.97;;;1.88;;
19621;SDS011;9958;33.196;-97.114;2023-12-20T11:18:52;4.25;;;2.15;;
19621;SDS011;9958;33.196;-97.114;2023-12-20T11:21:21;3.40;;;2.45;;
19621;SDS011;9958;33.196;-97.114;2023-12-20T11:23:49;3.58;;;2.50;;
19621;SDS011;9958;33.196;-97.114;2023-12-20T11:26:19;5.32;;;2.20;;
19621;SDS011;9958;33.196;-97.114;2023-12-20T11:28:53;6.05;;;2.80;;
19621;SDS011;9958;33.196;-97.114;2023-12-20T11:31:22;3.78;;;2.65;;
19621;SDS011;9958;33.196;-97.114;2023-12-20T11:33:50;4.05;;;2.17;;
19621;SDS011;9958;33.196;-97.114;2023-12-20T11:36:21;5.85;;;2.75;;
19621;SDS011;9958;33.196;-97.114;2023-12-20T11:38:56;4.47;;;2.15;;
19621;SDS011;9958;33.196;-97.114;2023-12-20T11:41:26;4.80;;;2.38;;
19621;SDS011;9958;33.196;-97.114;2023-12-20T11:43:55;3.45;;;2.00;;
19621;SDS011;9958;33.196;-97.114;2023-12-20T11:46:23;3.22;;;2.28;;
19621;SDS011;9958;33.196;-97.114;2023-12-20T11:48:52;4.88;;;2.17;;
19621;SDS011;9958;33.196;-97.114;2023-12-20T11:51:21;4.90;;;2.10;;
19621;SDS011;9958;33.196;-97.114;2023-12-20T11:53:51;4.85;;;2.58;;
19621;SDS011;9958;33.196;-97.114;2023-12-20T11:56:19;2.90;;;2.13;;
19621;SDS011;9958;33.196;-97.114;2023-12-20T11:58:50;2.92;;;2.33;;
19621;SDS011;9958;33.196;-97.114;2023-12-20T12:01:19;5.95;;;2.60;;
19621;SDS011;9958;33.196;-97.114;2023-12-20T12:03:48;3.60;;;2.67;;
19621;SDS011;9958;33.196;-97.114;2023-12-20T12:06:29;5.57;;;2.30;;
19621;SDS011;9958;33.196;-97.114;2023-12-20T12:08:57;4.00;;;2.33;;
19621;SDS011;9958;33.196;-97.114;2023-12-20T12:11:25;2.72;;;2.08;;
19621;SDS011;9958;33.196;-97.114;2023-12-20T12:13:55;4.05;;;2.53;;
19621;SDS011;9958;33.196;-97.114;2023-12-20T12:16:24;2.88;;;1.98;;
19621;SDS011;9958;33.196;-97.114;2023-12-20T12:18:56;4.07;;;2.28;;
19621;SDS011;9958;33.196;-97.114;2023-12-20T12:21:24;3.83;;;2.20;;
19621;SDS011;9958;33.196;-97.114;2023-12-20T12:23:53;2.92;;;2.00;;
19621;SDS011;9958;33.196;-97.114;2023-12-20T12:26:21;7.35;;;2.40;;
19621;SDS011;9958;33.196;-97.114;2023-12-20T12:28:52;2.92;;;2.35;;
19621;SDS011;9958;33.196;-97.114;2023-12-20T12:31:22;3.20;;;2.30;;
19621;SDS011;9958;33.196;-97.114;2023-12-20T12:33:52;3.22;;;2.25;;
19621;SDS011;9958;33.196;-97.114;2023-12-20T12:36:20;3.20;;;2.50;;
19621;SDS011;9958;33.196;-97.114;2023-12-20T12:38:49;5.95;;;2.03;;
19621;SDS011;9958;33.196;-97.114;2023-12-20T12:41:17;2.97;;;2.22;;
19621;SDS011;9958;33.196;-97.114;2023-12-20T12:43:45;3.30;;;2.40;;
19621;SDS011;9958;33.196;-97.114;2023-12-20T12:46:15;2.95;;;2.10;;
19621;SDS011;9958;33.196;-97.114;2023-12-20T12:48:44;3.65;;;2.40;;
19621;SDS011;9958;33.196;-97.114;2023-12-20T12:51:12;4.82;;;2.33;;
19621;SDS011;9958;33.196;-97.114;2023-12-20T12:53:41;2.83;;;2.22;;
19621;SDS011;9958;33.196;-97.114;2023-12-20T12:56:09;5.85;;;2.50;;
19621;SDS011;9958;33.196;-97.114;2023-12-20T12:58:39;3.45;;;2.22;;
19621;SDS011;9958;33.196;-97.114;2023-12-20T13:01:08;7.78;;;2.88;;
19621;SDS011;9958;33.196;-97.114;2023-12-20T13:03:38;5.72;;;2.70;;
19621;SDS011;9958;33.196;-97.114;2023-12-20T13:06:06;4.68;;;2.78;;
19621;SDS011;9958;33.196;-97.114;2023-12-20T13:08:34;2.60;;;2.40;;
19621;SDS011;9958;33.196;-97.114;2023-12-20T13:11:03;2.83;;;2.03;;
19621;SDS011;9958;33.196;-97.114;2023-12-20T13:13:31;2.25;;;2.00;;
19621;SDS011;9958;33.196;-97.114;2023-12-20T13:16:00;2.78;;;2.08;;
19621;SDS011;9958;33.196;-97.114;2023-12-20T13:18:28;3.05;;;2.35;;
19621;SDS011;9958;33.196;-97.114;2023-12-20T13:20:58;3.40;;;2.05;;
19621;SDS011;9958;33.196;-97.114;2023-12-20T13:23:26;2.70;;;2.50;;
19621;SDS011;9958;33.196;-97.114;2023-12-20T13:25:55;4.35;;;2.15;;
19621;SDS011;9958;33.196;-97.114;2023-12-20T13:28:23;5.82;;;2.30;;
19621;SDS011;9958;33.196;-97.114;2023-12-20T13:30:52;5.57;;;2.50;;
19621;SDS011;9958;33.196;-97.114;2023-12-20T13:33:20;3.60;;;2.50;;
19621;SDS011;9958;33.196;-97.114;2023-12-20T13:35:48;2.67;;;2.10;;
19621;SDS011;9958;33.196;-97.114;2023-12-20T13:38:18;2.05;;;1.85;;
19621;SDS011;9958;33.196;-97.114;2023-12-20T13:40:47;3.72;;;2.22;;
19621;SDS011;9958;33.196;-97.114;2023-12-20T13:43:15;2.17;;;1.95;;
19621;SDS011;9958;33.196;-97.114;2023-12-20T13:45:46;5.40;;;2.55;;
19621;SDS011;9958;33.196;-97.114;2023-12-20T13:48:14;3.10;;;2.05;;
19621;SDS011;9958;33.196;-97.114;2023-12-20T13:50:43;3.92;;;2.22;;
19621;SDS011;9958;33.196;-97.114;2023-12-20T13:53:11;2.78;;;1.67;;
19621;SDS011;9958;33.196;-97.114;2023-12-20T13:55:41;3.20;;;2.03;;
19621;SDS011;9958;33.196;-97.114;2023-12-20T13:58:09;3.03;;;1.80;;
19621;SDS011;9958;33.196;-97.114;2023-12-20T14:00:38;3.97;;;2.22;;
19621;SDS011;9958;33.196;-97.114;2023-12-20T14:03:07;3.47;;;1.92;;
19621;SDS011;9958;33.196;-97.114;2023-12-20T14:05:35;3.22;;;2.40;;
19621;SDS011;9958;33.196;-97.114;2023-12-20T14:08:04;4.05;;;2.10;;
19621;SDS011;9958;33.196;-97.114;2023-12-20T14:10:33;5.40;;;2.97;;
19621;SDS011;9958;33.196;-97.114;2023-12-20T14:13:03;3.38;;;2.05;;
19621;SDS011;9958;33.196;-97.114;2023-12-20T14:15:32;3.60;;;2.30;;
19621;SDS011;9958;33.196;-97.114;2023-12-20T14:18:03;4.25;;;2.13;;
19621;SDS011;9958;33.196;-97.114;2023-12-20T14:20:33;4.53;;;2.38;;
19621;SDS011;9958;33.196;-97.114;2023-12-20T14:23:02;7.68;;;2.30;;
19621;SDS011;9958;33.196;-97.114;2023-12-20T14:25:30;3.67;;;2.60;;
19621;SDS011;9958;33.196;-97.114;2023-12-20T14:27:59;3.90;;;2.38;;
19621;SDS011;9958;33.196;-97.114;2023-12-20T14:30:28;4.82;;;2.35;;
19621;SDS011;9958;33.196;-97.114;2023-12-20T14:32:57;2.08;;;1.73;;
19621;SDS011;9958;33.196;-97.114;2023-12-20T14:35:26;4.03;;;2.30;;
19621;SDS011;9958;33.196;-97.114;2023-12-20T14:37:54;2.58;;;2.03;;
19621;SDS011;9958;33.196;-97.114;2023-12-20T14:40:22;3.83;;;2.22;;
19621;SDS011;9958;33.196;-97.114;2023-12-20T14:42:51;3.15;;;2.20;;